Edisonville, Pennsylvania
Current Conditions -  °F | °C
As of 11:53 PM on Sunday 21 Dec 2014 (Local Time) from KLNS Reporting Station
Haze Haze  
Wind Chill: 24°   Ceiling: Unl
Heat Index: 24°   Visibility: 6mi
Dew Point: 20°   Wind: 3mph
Humidity: 84%   Direction: 60°ENE
Pressure: 30.32"   Gusts: NA
Location:  39.96°N, 76.1809°W
Report Text: KLNS 220453Z AUTO 06003KT 6SM BR CLR M04/M07 A3032 RMK AO2 SLP271 T10441067 400171056
Loading
Personal Weather Stations






























Interactive Weather Map New forecast layout! Learn more

10-Day Weather Forecast

Advertisements
Track Severe Weather on mobile